createdAt,value
2018-09-04T00:00:48.986Z,101275.34
2018-09-04T00:01:53.525Z,101266.95
2018-09-04T00:02:58.203Z,101269.30
2018-09-04T00:04:02.918Z,101273.85
2018-09-04T00:05:07.407Z,101267.61
2018-09-04T00:06:12.120Z,101267.61
2018-09-04T00:07:20.014Z,101260.56
2018-09-04T00:08:24.466Z,101262.07
2018-09-04T00:09:29.401Z,101263.08
2018-09-04T00:10:33.974Z,101261.92
2018-09-04T00:11:38.909Z,101267.47
2018-09-04T00:12:43.614Z,101261.94
2018-09-04T00:13:48.314Z,101264.29
2018-09-04T00:14:52.551Z,101262.62
2018-09-04T00:15:57.502Z,101265.33
2018-09-04T00:17:02.632Z,101266.33
2018-09-04T00:18:07.122Z,101268.69
2018-09-04T00:19:12.142Z,101267.02
2018-09-04T00:20:17.187Z,101269.03
2018-09-04T00:21:21.751Z,101270.05
2018-09-04T00:22:26.382Z,101265.69
2018-09-04T00:23:31.496Z,101270.05
2018-09-04T00:24:36.354Z,101267.34
2018-09-04T00:25:40.745Z,101268.70
2018-09-04T00:26:45.521Z,101268.70
2018-09-04T00:27:50.011Z,101267.34
2018-09-04T00:28:54.576Z,101261.95
2018-09-04T00:29:59.088Z,101262.48
2018-09-04T00:31:03.600Z,101260.45
2018-09-04T00:32:08.681Z,101256.27
2018-09-04T00:33:13.239Z,101260.81
2018-09-04T00:34:17.915Z,101256.42
2018-09-04T00:35:23.127Z,101253.41
2018-09-04T00:36:28.162Z,101251.56
2018-09-04T00:37:33.006Z,101260.16
2018-09-04T00:38:38.331Z,101253.92
2018-09-04T00:39:43.668Z,101249.88
2018-09-04T00:40:48.234Z,101257.12
2018-09-04T00:41:52.938Z,101249.88
2018-09-04T00:42:58.235Z,101249.88
2018-09-04T00:44:03.060Z,101250.03
2018-09-04T00:45:07.811Z,101248.88
2018-09-04T00:46:12.576Z,101247.66
2018-09-04T00:47:17.446Z,101247.34
2018-09-04T00:48:21.884Z,101246.50
2018-09-04T00:49:26.047Z,101249.51
2018-09-04T00:50:31.188Z,101245.47
2018-09-04T00:51:36.230Z,101243.81
2018-09-04T00:52:41.220Z,101245.16
2018-09-04T00:53:45.716Z,101243.97
2018-09-04T00:54:50.486Z,101243.81
2018-09-04T00:55:55.321Z,101243.16
2018-09-04T00:57:00.279Z,101244.02
2018-09-04T00:58:05.804Z,101250.06
2018-09-04T00:59:10.673Z,101245.88
2018-09-04T01:00:14.872Z,101241.68
2018-09-04T01:01:20.300Z,101247.23
2018-09-04T01:02:25.554Z,101243.53
2018-09-04T01:03:30.439Z,101248.27
2018-09-04T01:04:35.511Z,101239.50
2018-09-04T01:05:40.006Z,101249.63
2018-09-04T01:06:44.681Z,101249.27
2018-09-04T01:07:49.309Z,101248.62
2018-09-04T01:08:53.821Z,101248.27
2018-09-04T01:09:58.946Z,101245.77
2018-09-04T01:11:03.606Z,101243.08
2018-09-04T01:12:08.252Z,101247.97
2018-09-04T01:13:13.045Z,101247.27
2018-09-04T01:14:17.854Z,101247.27
2018-09-04T01:15:22.230Z,101245.08
2018-09-04T01:16:27.233Z,101242.23
2018-09-04T01:17:31.779Z,101240.54
2018-09-04T01:18:36.158Z,101239.53
2018-09-04T01:19:40.787Z,101241.19
2018-09-04T01:20:45.902Z,101239.53
2018-09-04T01:21:50.432Z,101242.23
2018-09-04T01:22:55.303Z,101244.92
2018-09-04T01:23:59.960Z,101243.23
2018-09-04T01:25:04.246Z,101244.92
2018-09-04T01:26:08.821Z,101245.92
2018-09-04T01:27:13.623Z,101246.93
2018-09-04T01:28:18.759Z,101245.58
2018-09-04T01:29:23.419Z,101245.77
2018-09-04T01:30:27.958Z,101243.08
2018-09-04T01:31:32.824Z,101245.27
2018-09-04T01:32:37.517Z,101243.08
2018-09-04T01:33:42.072Z,101252.51
2018-09-04T01:34:47.010Z,101247.27
2018-09-04T01:35:51.440Z,101251.32
2018-09-04T01:36:56.245Z,101254.86
2018-09-04T01:38:01.134Z,101258.40
2018-09-04T01:39:07.256Z,101251.32
2018-09-04T01:40:11.641Z,101254.52
2018-09-04T01:41:16.074Z,101256.39
2018-09-04T01:42:21.097Z,101255.20
2018-09-04T01:43:25.822Z,101255.05
2018-09-04T01:44:30.276Z,101257.05
2018-09-04T01:45:34.918Z,101258.41
2018-09-04T01:46:39.652Z,101252.70
2018-09-04T01:47:44.446Z,101252.36
2018-09-04T01:48:49.976Z,101252.36
2018-09-04T01:49:55.172Z,101253.36
2018-09-04T01:51:00.257Z,101256.59
2018-09-04T01:52:04.946Z,101253.70
2018-09-04T01:53:09.589Z,101262.29
2018-09-04T01:54:14.447Z,101257.59
2018-09-04T01:55:19.319Z,101261.81
2018-09-04T01:56:24.316Z,101256.74
2018-09-04T01:57:29.264Z,101262.97
2018-09-04T01:58:34.290Z,101257.43
2018-09-04T01:59:39.034Z,101256.59
2018-09-04T02:00:44.134Z,101269.20
2018-09-04T02:01:48.583Z,101257.09
2018-09-04T02:02:53.395Z,101254.73
2018-09-04T02:03:58.139Z,101251.05
2018-09-04T02:05:02.634Z,101252.55
2018-09-04T02:06:06.991Z,101254.05
2018-09-04T02:07:11.401Z,101256.09
2018-09-04T02:08:15.924Z,101256.90
2018-09-04T02:09:21.318Z,101256.24
2018-09-04T02:10:25.977Z,101258.94
2018-09-04T02:11:30.878Z,101255.24
2018-09-04T02:12:35.495Z,101256.05
2018-09-04T02:13:40.343Z,101249.32
2018-09-04T02:14:45.034Z,101259.75
2018-09-04T02:15:50.101Z,101254.70
2018-09-04T02:16:54.703Z,101253.70
2018-09-04T02:17:59.453Z,101250.51
2018-09-04T02:19:04.307Z,101253.02
2018-09-04T02:20:09.081Z,101256.39
2018-09-04T02:21:13.771Z,101248.81
2018-09-04T02:22:18.730Z,101252.01
2018-09-04T02:23:23.717Z,101258.91
2018-09-04T02:24:28.758Z,101255.39
2018-09-04T02:25:33.431Z,101254.05
2018-09-04T02:26:38.314Z,101252.36
2018-09-04T02:27:43.397Z,101256.74
2018-09-04T02:28:48.220Z,101251.01
2018-09-04T02:29:52.932Z,101258.59
2018-09-04T02:30:57.693Z,101256.74
2018-09-04T02:32:02.531Z,101259.44
2018-09-04T02:33:07.471Z,101255.20
2018-09-04T02:34:12.090Z,101252.86
2018-09-04T02:35:16.933Z,101257.39
2018-09-04T02:36:21.400Z,101255.36
2018-09-04T02:37:26.242Z,101251.97
2018-09-04T02:38:31.084Z,101249.63
2018-09-04T02:39:36.614Z,101245.92
2018-09-04T02:40:41.340Z,101245.23
2018-09-04T02:41:46.423Z,101247.27
2018-09-04T02:42:51.585Z,101248.08
2018-09-04T02:43:56.232Z,101246.91
2018-09-04T02:45:01.257Z,101245.88
2018-09-04T02:46:08.196Z,101248.91
2018-09-04T02:47:13.319Z,101241.84
2018-09-04T02:48:18.146Z,101242.69
2018-09-04T02:49:23.089Z,101243.53
2018-09-04T02:50:27.983Z,101244.88
2018-09-04T02:51:32.912Z,101241.84
2018-09-04T02:52:37.819Z,101242.88
2018-09-04T02:53:42.840Z,101244.72
2018-09-04T02:54:48.428Z,101246.73
2018-09-04T02:55:52.957Z,101244.57
2018-09-04T02:56:58.033Z,101242.53
2018-09-04T02:58:03.179Z,101242.19
2018-09-04T02:59:07.988Z,101245.92
2018-09-04T03:00:13.024Z,101243.73
2018-09-04T03:01:18.233Z,101248.77
2018-09-04T03:02:23.045Z,101239.84
2018-09-04T03:03:30.673Z,101239.84
2018-09-04T03:04:35.543Z,101240.19
2018-09-04T03:05:40.451Z,101248.62
2018-09-04T03:06:45.333Z,101240.03
2018-09-04T03:07:50.193Z,101236.49
2018-09-04T03:08:55.654Z,101239.19
2018-09-04T03:10:00.454Z,101235.30
2018-09-04T03:11:05.496Z,101233.30
2018-09-04T03:12:10.699Z,101235.66
2018-09-04T03:13:15.518Z,101235.30
2018-09-04T03:14:20.054Z,101232.80
2018-09-04T03:15:24.956Z,101233.80
2018-09-04T03:16:29.991Z,101239.20
2018-09-04T03:17:35.302Z,101235.16
2018-09-04T03:18:40.201Z,101235.66
2018-09-04T03:19:44.909Z,101231.61
2018-09-04T03:20:49.730Z,101244.58
2018-09-04T03:21:55.136Z,101241.39
2018-09-04T03:23:00.600Z,101236.66
2018-09-04T03:24:04.848Z,101239.19
2018-09-04T03:25:09.273Z,101234.45
2018-09-04T03:26:14.605Z,101232.77
2018-09-04T03:27:19.859Z,101234.45
2018-09-04T03:28:24.960Z,101226.71
2018-09-04T03:29:30.096Z,101231.91
2018-09-04T03:30:35.557Z,101232.75
2018-09-04T03:31:40.241Z,101228.72
2018-09-04T03:32:45.160Z,101228.05
2018-09-04T03:33:50.315Z,101232.75
2018-09-04T03:34:54.926Z,101226.52
2018-09-04T03:35:59.461Z,101230.06
2018-09-04T03:37:04.480Z,101228.72
2018-09-04T03:38:09.251Z,101235.45
2018-09-04T03:39:14.274Z,101228.72
2018-09-04T03:40:19.203Z,101231.91
2018-09-04T03:41:24.013Z,101232.44
2018-09-04T03:42:28.355Z,101234.45
2018-09-04T03:43:32.889Z,101234.64
2018-09-04T03:44:37.073Z,101233.45
2018-09-04T03:45:41.691Z,101231.77
2018-09-04T03:46:45.888Z,101238.19
2018-09-04T03:47:50.508Z,101234.45
2018-09-04T03:48:55.126Z,101230.95
2018-09-04T03:49:59.883Z,101242.54
2018-09-04T03:51:05.362Z,101234.99
2018-09-04T03:52:10.327Z,101240.87
2018-09-04T03:53:15.193Z,101235.66
2018-09-04T03:54:19.546Z,101241.23
2018-09-04T03:55:23.951Z,101237.34
2018-09-04T03:56:28.197Z,101235.34
2018-09-04T03:57:32.813Z,101233.31
2018-09-04T03:58:37.467Z,101237.04
2018-09-04T03:59:42.064Z,101235.84
2018-09-04T04:00:46.532Z,101231.47
2018-09-04T04:01:51.290Z,101234.84
2018-09-04T04:02:55.959Z,101228.46
2018-09-04T04:04:00.550Z,101229.47
2018-09-04T04:05:05.202Z,101234.70
2018-09-04T04:06:09.777Z,101228.15
2018-09-04T04:07:14.208Z,101230.50
2018-09-04T04:08:18.674Z,101227.46
2018-09-04T04:09:23.029Z,101232.34
2018-09-04T04:10:27.392Z,101236.23
2018-09-04T04:11:32.314Z,101237.08
2018-09-04T04:12:37.660Z,101243.81
2018-09-04T04:13:42.644Z,101246.16
2018-09-04T04:14:47.720Z,101242.28
2018-09-04T04:15:52.892Z,101244.97
2018-09-04T04:16:57.814Z,101245.66
2018-09-04T04:18:02.707Z,101242.97
2018-09-04T04:19:07.399Z,101245.31
2018-09-04T04:20:12.472Z,101243.66
2018-09-04T04:21:17.032Z,101243.12
2018-09-04T04:22:21.956Z,101242.96
2018-09-04T04:23:27.469Z,101245.84
2018-09-04T04:24:32.197Z,101244.31
2018-09-04T04:25:36.831Z,101246.84
2018-09-04T04:26:41.712Z,101244.49
2018-09-04T04:27:46.636Z,101247.37
2018-09-04T04:28:51.071Z,101246.02
2018-09-04T04:29:55.962Z,101245.67
2018-09-04T04:31:00.179Z,101249.02
2018-09-04T04:32:05.014Z,101249.67
2018-09-04T04:33:09.972Z,101252.05
2018-09-04T04:34:14.418Z,101254.75
2018-09-04T04:35:19.151Z,101252.21
2018-09-04T04:36:23.880Z,101252.89
2018-09-04T04:37:28.802Z,101254.74
2018-09-04T04:38:33.651Z,101258.78
2018-09-04T04:39:38.187Z,101256.24
2018-09-04T04:40:43.015Z,101257.27
2018-09-04T04:41:47.567Z,101257.77
2018-09-04T04:42:52.132Z,101252.73
2018-09-04T04:43:57.047Z,101261.30
2018-09-04T04:45:01.708Z,101258.61
2018-09-04T04:46:06.431Z,101256.92
2018-09-04T04:47:11.448Z,101260.11
2018-09-04T04:48:15.735Z,101262.48
2018-09-04T04:49:20.090Z,101261.64
2018-09-04T04:50:24.573Z,101263.14
2018-09-04T04:51:29.220Z,101267.52
2018-09-04T04:52:33.816Z,101267.87
2018-09-04T04:53:38.528Z,101265.33
2018-09-04T04:54:43.008Z,101266.52
2018-09-04T04:55:47.746Z,101268.19
2018-09-04T04:56:52.430Z,101268.19
2018-09-04T04:57:57.035Z,101270.87
2018-09-04T04:59:01.651Z,101273.91
2018-09-04T05:00:06.475Z,101271.22
2018-09-04T05:01:11.106Z,101274.27
2018-09-04T05:02:15.631Z,101271.57
2018-09-04T05:03:19.805Z,101282.34
2018-09-04T05:04:24.170Z,101273.56
2018-09-04T05:05:28.928Z,101272.57
2018-09-04T05:06:33.813Z,101276.26
2018-09-04T05:07:38.674Z,101267.87
2018-09-04T05:08:43.195Z,101275.09
2018-09-04T05:09:47.774Z,101275.09
2018-09-04T05:10:52.315Z,101275.25
2018-09-04T05:11:56.708Z,101276.59
2018-09-04T05:13:01.920Z,101272.25
2018-09-04T05:14:06.811Z,101274.94
2018-09-04T05:15:11.759Z,101268.20
2018-09-04T05:16:16.570Z,101270.72
2018-09-04T05:17:21.778Z,101273.91
2018-09-04T05:18:26.635Z,101268.52
2018-09-04T05:19:31.002Z,101268.87
2018-09-04T05:20:36.189Z,101262.14
2018-09-04T05:21:41.180Z,101270.06
2018-09-04T05:22:45.975Z,101270.72
2018-09-04T05:23:51.017Z,101271.38
2018-09-04T05:24:55.626Z,101271.23
2018-09-04T05:26:00.221Z,101270.55
2018-09-04T05:27:05.395Z,101278.47
2018-09-04T05:28:10.238Z,101271.55
2018-09-04T05:29:14.756Z,101276.59
2018-09-04T05:30:19.278Z,101279.98
2018-09-04T05:31:24.127Z,101277.98
2018-09-04T05:32:32.868Z,101277.33
2018-09-04T05:33:41.816Z,101278.33
2018-09-04T05:34:46.182Z,101278.65
2018-09-04T05:35:53.562Z,101286.38
2018-09-04T05:36:58.036Z,101279.34
2018-09-04T05:38:02.624Z,101286.38
2018-09-04T05:39:09.359Z,101284.04
2018-09-04T05:40:14.490Z,101284.39
2018-09-04T05:41:19.420Z,101286.39
2018-09-04T05:42:33.281Z,101277.81
2018-09-04T05:43:50.943Z,101284.39
2018-09-04T05:44:55.777Z,101289.59
2018-09-04T05:46:02.963Z,101288.40
2018-09-04T05:47:07.758Z,101291.44
2018-09-04T05:48:13.728Z,101298.52
2018-09-04T05:49:20.847Z,101296.14
2018-09-04T05:50:25.370Z,101295.14
2018-09-04T05:51:29.990Z,101299.17
2018-09-04T05:52:34.887Z,101302.03
2018-09-04T05:53:39.863Z,101299.53
2018-09-04T05:54:44.481Z,101299.34
2018-09-04T05:55:49.552Z,101300.19
2018-09-04T05:56:54.360Z,101304.89
2018-09-04T05:57:59.299Z,101301.53
2018-09-04T05:59:03.867Z,101306.23
2018-09-04T06:00:11.917Z,101300.69
2018-09-04T06:01:16.704Z,101302.84
2018-09-04T06:02:21.722Z,101304.05
2018-09-04T06:03:26.180Z,101303.35
2018-09-04T06:04:30.484Z,101299.16
2018-09-04T06:05:35.299Z,101301.16
2018-09-04T06:06:39.486Z,101305.89
2018-09-04T06:07:44.648Z,101299.81
2018-09-04T06:08:50.309Z,101302.66
2018-09-04T06:09:54.999Z,101301.16
2018-09-04T06:10:59.502Z,101302.51
2018-09-04T06:12:03.971Z,101301.81
2018-09-04T06:13:08.808Z,101302.81
2018-09-04T06:14:13.463Z,101304.51
2018-09-04T06:15:18.364Z,101302.13
2018-09-04T06:16:23.172Z,101308.52
2018-09-04T06:17:28.062Z,101301.78
2018-09-04T06:18:32.780Z,101314.09
2018-09-04T06:19:37.882Z,101310.36
2018-09-04T06:20:42.394Z,101307.51
2018-09-04T06:21:46.550Z,101309.20
2018-09-04T06:22:50.733Z,101311.55
2018-09-04T06:23:55.816Z,101309.51
2018-09-04T06:25:00.035Z,101306.31
2018-09-04T06:26:04.379Z,101309.16
2018-09-04T06:27:09.367Z,101306.97
2018-09-04T06:28:13.571Z,101304.48
2018-09-04T06:29:17.880Z,101309.53
2018-09-04T06:30:22.068Z,101310.03
2018-09-04T06:31:26.308Z,101309.69
2018-09-04T06:32:30.496Z,101311.69
2018-09-04T06:33:35.154Z,101305.09
2018-09-04T06:34:40.445Z,101309.33
2018-09-04T06:35:44.570Z,101309.48
2018-09-04T06:36:49.017Z,101310.47
2018-09-04T06:37:53.261Z,101308.77
2018-09-04T06:38:57.739Z,101308.61
2018-09-04T06:40:02.307Z,101314.16
2018-09-04T06:41:07.044Z,101311.80
2018-09-04T06:42:12.180Z,101323.25
2018-09-04T06:43:16.745Z,101317.51
2018-09-04T06:44:21.446Z,101315.50
2018-09-04T06:45:26.084Z,101315.80
2018-09-04T06:46:30.926Z,101320.53
2018-09-04T06:47:35.415Z,101318.15
2018-09-04T06:48:40.407Z,101324.73
2018-09-04T06:49:44.716Z,101321.84
2018-09-04T06:50:49.371Z,101324.03
2018-09-04T06:51:53.584Z,101314.94
2018-09-04T06:52:58.187Z,101318.82
2018-09-04T06:54:02.487Z,101317.63
2018-09-04T06:55:06.747Z,101322.17
2018-09-04T06:56:11.098Z,101320.63
2018-09-04T06:57:16.103Z,101319.62
2018-09-04T06:58:20.620Z,101323.52
2018-09-04T06:59:24.866Z,101321.63
2018-09-04T07:00:29.050Z,101320.81
2018-09-04T07:01:33.672Z,101320.12
2018-09-04T07:02:37.903Z,101325.52
2018-09-04T07:03:42.087Z,101324.81
2018-09-04T07:04:46.253Z,101329.20
2018-09-04T07:05:50.630Z,101330.89
2018-09-04T07:06:54.811Z,101332.55
2018-09-04T07:07:58.982Z,101327.50
2018-09-04T07:09:03.728Z,101330.54
2018-09-04T07:10:08.226Z,101321.09
2018-09-04T07:11:12.476Z,101323.80
2018-09-04T07:12:16.837Z,101327.65
2018-09-04T07:13:21.130Z,101326.64
2018-09-04T07:14:25.376Z,101322.94
2018-09-04T07:15:29.582Z,101324.09
2018-09-04T07:16:33.866Z,101325.78
2018-09-04T07:17:38.276Z,101325.62
2018-09-04T07:18:42.507Z,101321.03
2018-09-04T07:19:46.702Z,101321.87
2018-09-04T07:20:51.430Z,101325.42
2018-09-04T07:21:56.261Z,101327.11
2018-09-04T07:23:01.059Z,101329.11
2018-09-04T07:24:05.351Z,101330.97
2018-09-04T07:25:10.086Z,101329.45
2018-09-04T07:26:14.427Z,101326.76
2018-09-04T07:27:19.075Z,101324.56
2018-09-04T07:28:23.349Z,101325.06
2018-09-04T07:29:28.102Z,101325.57
2018-09-04T07:30:32.967Z,101325.41
2018-09-04T07:31:37.208Z,101324.06
2018-09-04T07:32:41.463Z,101322.70
2018-09-04T07:33:45.960Z,101318.16
2018-09-04T07:34:50.370Z,101318.80
2018-09-04T07:35:55.124Z,101324.55
2018-09-04T07:36:59.392Z,101321.83
2018-09-04T07:38:04.006Z,101325.88
2018-09-04T07:39:10.213Z,101325.18
2018-09-04T07:40:14.513Z,101320.46
2018-09-04T07:41:18.856Z,101327.39
2018-09-04T07:42:23.383Z,101323.48
2018-09-04T07:43:27.669Z,101335.44
2018-09-04T07:44:31.886Z,101327.52
2018-09-04T07:45:36.259Z,101327.66
2018-09-04T07:46:40.534Z,101327.97
2018-09-04T07:47:44.926Z,101331.69
2018-09-04T07:48:49.109Z,101335.37
2018-09-04T07:49:53.539Z,101328.43
2018-09-04T07:50:57.795Z,101328.58
2018-09-04T07:52:02.078Z,101328.91
2018-09-04T07:53:07.180Z,101331.59
2018-09-04T07:54:11.452Z,101331.39
2018-09-04T07:55:16.176Z,101332.58
2018-09-04T07:56:20.859Z,101335.93
2018-09-04T07:57:25.080Z,101331.20
2018-09-04T07:58:29.395Z,101325.10
2018-09-04T07:59:34.111Z,101325.75
2018-09-04T08:00:38.408Z,101329.13
2018-09-04T08:01:42.574Z,101327.58
2018-09-04T08:02:46.846Z,101318.80
2018-09-04T08:03:51.471Z,101324.01
2018-09-04T08:04:56.179Z,101320.80
2018-09-04T08:06:00.481Z,101329.05
2018-09-04T08:07:04.919Z,101329.38
2018-09-04T08:08:09.228Z,101326.83
2018-09-04T08:09:13.387Z,101324.46
2018-09-04T08:10:17.691Z,101330.00
2018-09-04T08:11:21.931Z,101333.38
2018-09-04T08:12:26.149Z,101332.17
2018-09-04T08:13:30.868Z,101336.88
2018-09-04T08:14:35.477Z,101337.86
2018-09-04T08:15:39.712Z,101336.98
2018-09-04T08:16:44.123Z,101342.02
2018-09-04T08:17:48.453Z,101346.08
2018-09-04T08:18:52.736Z,101348.24
2018-09-04T08:19:57.736Z,101350.72
2018-09-04T08:21:02.004Z,101355.72
2018-09-04T08:22:06.193Z,101351.77
2018-09-04T08:23:10.382Z,101354.58
2018-09-04T08:24:14.579Z,101355.52
2018-09-04T08:25:19.040Z,101357.78
2018-09-04T08:26:23.247Z,101353.83
2018-09-04T08:27:27.442Z,101347.36
2018-09-04T08:28:31.650Z,101358.14
2018-09-04T08:29:35.889Z,101351.84
2018-09-04T08:30:40.043Z,101351.47
2018-09-04T08:31:44.300Z,101349.06
2018-09-04T08:32:48.560Z,101352.45
2018-09-04T08:33:52.914Z,101351.22
2018-09-04T08:34:57.102Z,101349.66
2018-09-04T08:36:01.326Z,101349.66
2018-09-04T08:37:05.785Z,101351.01
2018-09-04T08:38:10.025Z,101350.84
2018-09-04T08:39:14.206Z,101349.10
2018-09-04T08:40:18.452Z,101353.13
2018-09-04T08:41:22.639Z,101349.83
2018-09-04T08:42:27.078Z,101348.43
2018-09-04T08:43:31.311Z,101350.75
2018-09-04T08:44:35.543Z,101350.38
2018-09-04T08:45:39.717Z,101348.26
2018-09-04T08:46:43.877Z,101350.20
2018-09-04T08:47:48.203Z,101351.89
2018-09-04T08:48:53.347Z,101350.87
2018-09-04T08:49:57.737Z,101352.91
2018-09-04T08:51:01.920Z,101347.36
2018-09-04T08:52:06.222Z,101347.58
2018-09-04T08:53:11.979Z,101340.52
2018-09-04T08:54:16.258Z,101345.30
2018-09-04T08:55:21.000Z,101337.86
2018-09-04T08:56:25.143Z,101341.92
2018-09-04T08:57:29.384Z,101336.50
2018-09-04T08:58:34.618Z,101343.81
2018-09-04T08:59:38.886Z,101337.94
2018-09-04T09:00:43.192Z,101334.56
2018-09-04T09:01:47.349Z,101335.61
2018-09-04T09:02:51.526Z,101336.80
2018-09-04T09:03:55.689Z,101333.46
2018-09-04T09:05:00.090Z,101339.42
2018-09-04T09:06:04.346Z,101342.84
2018-09-04T09:07:08.615Z,101340.52
2018-09-04T09:08:12.840Z,101345.94
2018-09-04T09:09:17.079Z,101337.17
2018-09-04T09:10:21.325Z,101337.34
2018-09-04T09:11:25.536Z,101336.50
2018-09-04T09:12:30.027Z,101329.07
2018-09-04T09:13:34.240Z,101331.10
2018-09-04T09:14:38.446Z,101326.73
2018-09-04T09:15:42.680Z,101329.11
2018-09-04T09:16:46.980Z,101323.06
2018-09-04T09:17:51.177Z,101322.72
2018-09-04T09:18:55.470Z,101323.23
2018-09-04T09:19:59.636Z,101321.37
2018-09-04T09:21:03.984Z,101332.83
2018-09-04T09:22:08.205Z,101330.80
2018-09-04T09:23:12.498Z,101333.97
2018-09-04T09:24:16.704Z,101327.37
2018-09-04T09:25:21.112Z,101331.43
2018-09-04T09:26:25.361Z,101329.36
2018-09-04T09:28:32.562Z,101334.39
2018-09-04T09:29:36.732Z,101339.13
2018-09-04T09:30:40.880Z,101330.50
2018-09-04T09:31:45.207Z,101331.00
2018-09-04T09:32:49.422Z,101335.70
2018-09-04T09:33:53.625Z,101333.33
2018-09-04T09:34:57.847Z,101337.02
2018-09-04T09:36:02.014Z,101327.67
2018-09-04T09:37:06.274Z,101336.89
2018-09-04T09:38:10.495Z,101327.03
2018-09-04T09:39:14.688Z,101329.90
2018-09-04T09:40:18.903Z,101334.42
2018-09-04T09:41:23.100Z,101333.06
2018-09-04T09:42:27.731Z,101334.72
2018-09-04T09:43:31.973Z,101335.90
2018-09-04T09:44:36.277Z,101331.63
2018-09-04T09:45:40.474Z,101330.95
2018-09-04T09:46:44.716Z,101330.23
2018-09-04T09:47:50.045Z,101328.19
2018-09-04T09:48:54.264Z,101325.15
2018-09-04T09:49:58.455Z,101328.19
2018-09-04T09:51:02.768Z,101326.83
2018-09-04T09:52:07.009Z,101326.11
2018-09-04T09:53:11.410Z,101326.11
2018-09-04T09:54:15.441Z,101326.75
2018-09-04T09:55:19.670Z,101325.40
2018-09-04T09:56:23.921Z,101331.48
2018-09-04T09:57:28.084Z,101334.48
2018-09-04T09:58:32.343Z,101334.83
2018-09-04T09:59:36.645Z,101332.11
2018-09-04T10:00:46.071Z,101332.75
2018-09-04T10:01:53.217Z,101332.58
2018-09-04T10:03:02.672Z,101337.81
2018-09-04T10:04:08.189Z,101327.80
2018-09-04T10:05:12.222Z,101324.91
2018-09-04T10:06:16.931Z,101327.10
2018-09-04T10:07:21.111Z,101319.95
2018-09-04T10:08:25.290Z,101318.72
2018-09-04T10:09:29.599Z,101320.86
2018-09-04T10:10:33.993Z,101317.25
2018-09-04T10:11:38.214Z,101320.05
2018-09-04T10:12:43.061Z,101321.83
2018-09-04T10:13:47.966Z,101318.77
2018-09-04T10:14:52.218Z,101324.61
2018-09-04T10:15:56.490Z,101316.30
2018-09-04T10:17:00.847Z,101320.88
2018-09-04T10:18:05.290Z,101315.58
2018-09-04T10:19:09.561Z,101315.18
2018-09-04T10:20:13.843Z,101315.84
2018-09-04T10:21:18.116Z,101312.74
2018-09-04T10:22:22.380Z,101314.03
2018-09-04T10:23:26.541Z,101313.64
2018-09-04T10:24:30.772Z,101323.25
2018-09-04T10:25:35.166Z,101313.25
2018-09-04T10:26:39.426Z,101311.56
2018-09-04T10:27:43.564Z,101311.77
2018-09-04T10:28:47.827Z,101314.78
2018-09-04T10:29:52.056Z,101314.78
2018-09-04T10:30:56.263Z,101310.54
2018-09-04T10:32:00.711Z,101306.66
2018-09-04T10:33:04.950Z,101311.23
2018-09-04T10:34:09.144Z,101309.88
2018-09-04T10:35:14.136Z,101303.83
2018-09-04T10:36:18.413Z,101304.84
2018-09-04T10:37:22.536Z,101301.51
2018-09-04T10:38:27.288Z,101305.91
2018-09-04T10:39:36.865Z,101307.26
2018-09-04T10:40:42.641Z,101305.91
2018-09-04T10:41:46.833Z,101298.41
2018-09-04T10:42:51.189Z,101302.29
2018-09-04T10:43:57.151Z,101303.09
2018-09-04T10:45:01.498Z,101293.61
2018-09-04T10:46:07.277Z,101291.23
2018-09-04T10:47:11.487Z,101294.27
2018-09-04T10:48:19.817Z,101293.43
2018-09-04T10:49:24.024Z,101294.27
2018-09-04T10:50:29.019Z,101297.10
2018-09-04T10:51:33.235Z,101296.59
2018-09-04T10:52:37.450Z,101292.31
2018-09-04T10:53:41.619Z,101293.81
2018-09-04T10:54:45.977Z,101295.80
2018-09-04T10:55:50.243Z,101294.56
2018-09-04T10:56:54.429Z,101292.00
2018-09-04T10:57:58.619Z,101289.19
2018-09-04T10:59:02.852Z,101287.77
2018-09-04T11:00:07.088Z,101286.67
2018-09-04T11:01:11.554Z,101290.81
2018-09-04T11:02:17.766Z,101288.44
2018-09-04T11:03:22.100Z,101287.97
2018-09-04T11:04:26.348Z,101293.76
2018-09-04T11:05:30.542Z,101287.20
2018-09-04T11:06:35.512Z,101285.77
2018-09-04T11:07:39.706Z,101285.80
2018-09-04T11:08:43.944Z,101284.66
2018-09-04T11:09:48.295Z,101285.75
2018-09-04T11:10:52.387Z,101289.52
2018-09-04T11:11:56.682Z,101287.03
2018-09-04T11:13:00.948Z,101285.16
2018-09-04T11:14:05.116Z,101291.42
2018-09-04T11:15:09.459Z,101293.52
2018-09-04T11:16:13.733Z,101283.36
2018-09-04T11:17:18.040Z,101285.45
2018-09-04T11:18:22.247Z,101292.83
2018-09-04T11:19:26.484Z,101290.66
2018-09-04T11:20:30.786Z,101293.05
2018-09-04T11:21:34.937Z,101293.89
2018-09-04T11:22:39.185Z,101294.73
2018-09-04T11:23:43.390Z,101293.67
2018-09-04T11:24:47.718Z,101288.58
2018-09-04T11:25:51.913Z,101288.90
2018-09-04T11:26:56.228Z,101286.48
2018-09-04T11:28:00.434Z,101290.14
2018-09-04T11:29:07.039Z,101289.12
2018-09-04T11:30:12.938Z,101291.64
2018-09-04T11:31:17.122Z,101293.30
2018-09-04T11:32:21.303Z,101288.60
2018-09-04T11:33:25.494Z,101290.47
2018-09-04T11:34:29.657Z,101292.56
2018-09-04T11:35:34.007Z,101285.56
2018-09-04T11:36:38.377Z,101285.05
2018-09-04T11:37:42.522Z,101280.56
2018-09-04T11:38:46.742Z,101281.52
2018-09-04T11:39:51.073Z,101282.50
2018-09-04T11:40:55.257Z,101286.70
2018-09-04T11:41:59.608Z,101282.93
2018-09-04T11:43:04.089Z,101283.77
2018-09-04T11:44:08.564Z,101278.77
2018-09-04T11:45:12.956Z,101284.31
2018-09-04T11:46:17.203Z,101286.94
2018-09-04T11:47:21.349Z,101284.84
2018-09-04T11:48:25.760Z,101283.41
2018-09-04T11:49:30.272Z,101283.31
2018-09-04T11:50:34.462Z,101282.58
2018-09-04T11:51:38.809Z,101282.91
2018-09-04T11:52:42.990Z,101277.80
2018-09-04T11:53:47.169Z,101280.62
2018-09-04T11:54:51.358Z,101278.00
2018-09-04T11:55:55.534Z,101281.37
2018-09-04T11:56:59.904Z,101275.72
2018-09-04T11:58:04.080Z,101272.80
2018-09-04T11:59:08.282Z,101276.14
2018-09-04T12:00:16.827Z,101269.97
2018-09-04T12:01:23.896Z,101273.11
2018-09-04T12:02:32.119Z,101277.84
2018-09-04T12:03:36.366Z,101274.90
2018-09-04T12:04:40.518Z,101278.45
2018-09-04T12:05:44.983Z,101276.58
2018-09-04T12:06:49.137Z,101274.37
2018-09-04T12:07:53.322Z,101271.47
2018-09-04T12:08:57.511Z,101275.32
2018-09-04T12:10:01.729Z,101277.84
2018-09-04T12:11:05.953Z,101272.70
2018-09-04T12:12:14.515Z,101269.47
2018-09-04T12:13:24.084Z,101266.75
2018-09-04T12:14:33.673Z,101271.16
2018-09-04T12:15:39.683Z,101276.16
2018-09-04T12:16:43.891Z,101268.53
2018-09-04T12:17:48.074Z,101266.84
2018-09-04T12:18:52.446Z,101263.61
2018-09-04T12:20:08.589Z,101266.33